Time;durP1;ratioP1;P1;durP2;ratioP2;P2;SDS_P1;SDS_P2;PMS_P1;PMS_P2;Temp;Humidity;BMP_temperature;BMP_pressure;BME280_temperature;BME280_humidity;BME280_pressure;Samples;Min_cycle;Max_cycle;Signal;HPM_P1;HPM_P2
2023/10/13 00:00:40;;;;;;;6.35;3.53;;;;;;;12.26;100.00;101319.78;5114879;28;20040;-79
2023/10/13 00:03:06;;;;;;;7.57;3.63;;;;;;;12.17;100.00;101292.69;5115063;28;20561;-79
2023/10/13 00:05:33;;;;;;;8.93;3.90;;;;;;;12.23;100.00;101309.59;5114450;28;20078;-79
2023/10/13 00:08:03;;;;;;;8.07;3.75;;;;;;;11.89;100.00;101246.34;5114792;28;20034;-78
2023/10/13 00:10:29;;;;;;;9.75;4.00;;;;;;;12.44;100.00;101362.91;5114965;28;20070;-80
2023/10/13 00:13:05;;;;;;;7.13;4.32;;;;;;;12.40;100.00;101305.16;5113981;28;20031;-78
2023/10/13 00:15:38;;;;;;;8.90;4.13;;;;;;;12.40;100.00;101328.09;5115162;28;20463;-78
2023/10/13 00:18:12;;;;;;;10.00;4.30;;;;;;;11.97;100.00;101354.13;5117060;28;20035;-79
2023/10/13 00:20:39;;;;;;;9.25;4.28;;;;;;;12.44;100.00;101370.56;5116920;28;20064;-80
2023/10/13 00:23:06;;;;;;;9.05;4.28;;;;;;;11.90;100.00;101333.81;5114196;28;20417;-79
2023/10/13 00:25:39;;;;;;;9.00;3.92;;;;;;;12.54;100.00;101377.22;5114314;28;20505;-78
2023/10/13 00:28:08;;;;;;;7.20;3.78;;;;;;;11.91;100.00;101303.22;5115122;28;20031;-79
2023/10/13 00:30:33;;;;;;;7.25;3.92;;;;;;;11.83;100.00;101320.31;5114874;28;20112;-78
2023/10/13 00:32:59;;;;;;;8.60;3.83;;;;;;;12.23;100.00;101374.22;5113700;27;20028;-78
2023/10/13 00:35:29;;;;;;;7.72;3.70;;;;;;;12.05;100.00;101303.91;5114513;28;20485;-76
2023/10/13 00:38:03;;;;;;;7.88;3.92;;;;;;;12.40;100.00;101376.56;5114843;28;20714;-77
2023/10/13 00:43:06;;;;;;;10.65;4.05;;;;;;;11.92;100.00;101376.25;5113870;28;20126;-78
2023/10/13 00:45:34;;;;;;;9.52;3.72;;;;;;;11.86;100.00;101366.16;5112928;28;20045;-80
2023/10/13 00:48:01;;;;;;;10.82;4.20;;;;;;;11.60;100.00;101303.56;5113326;28;20092;-80
2023/10/13 00:50:27;;;;;;;8.35;3.97;;;;;;;11.50;100.00;101297.72;5114083;28;20027;-80
2023/10/13 00:52:54;;;;;;;9.40;4.00;;;;;;;11.63;100.00;101294.16;5112727;28;20020;-79
2023/10/13 00:55:24;;;;;;;11.15;3.92;;;;;;;11.75;100.00;101357.75;5114188;28;20110;-77
2023/10/13 00:57:57;;;;;;;7.15;3.67;;;;;;;11.54;100.00;101309.56;5113516;28;20126;-79
2023/10/13 01:00:28;;;;;;;10.38;4.10;;;;;;;11.32;100.00;101319.13;5112609;28;20032;-79
2023/10/13 01:02:57;;;;;;;11.23;3.80;;;;;;;11.59;100.00;101329.91;5112466;28;20049;-77
2023/10/13 01:05:23;;;;;;;9.45;3.35;;;;;;;12.10;100.00;101340.34;5113491;27;20071;-79
2023/10/13 01:07:54;;;;;;;9.30;3.88;;;;;;;11.89;100.00;101278.59;5112463;28;20253;-80
2023/10/13 01:10:25;;;;;;;11.52;3.60;;;;;;;11.68;100.00;101343.41;5112825;28;20092;-78
2023/10/13 01:12:52;;;;;;;6.43;3.70;;;;;;;11.69;100.00;101263.56;5113872;28;20031;-79
2023/10/13 01:15:21;;;;;;;10.50;4.00;;;;;;;11.64;100.00;101323.91;5112270;28;20051;-77
2023/10/13 01:17:46;;;;;;;10.75;3.60;;;;;;;11.50;100.00;101269.72;5112558;28;20032;-79
2023/10/13 01:20:25;;;;;;;7.45;3.67;;;;;;;11.65;100.00;101278.88;5114274;28;20050;-78
2023/10/13 01:22:55;;;;;;;10.18;3.63;;;;;;;11.82;100.00;101343.25;5113761;28;20024;-80
2023/10/13 01:25:27;;;;;;;6.28;3.60;;;;;;;11.18;100.00;101216.59;5114072;28;20057;-79
2023/10/13 01:27:53;;;;;;;7.10;3.72;;;;;;;11.55;100.00;101257.75;5113269;28;20031;-80
2023/10/13 01:30:26;;;;;;;11.50;4.00;;;;;;;11.46;100.00;101306.25;5113774;28;20032;-76
2023/10/13 01:32:53;;;;;;;7.95;3.75;;;;;;;11.40;100.00;101324.13;5113398;28;20414;-80
2023/10/13 01:35:24;;;;;;;10.93;3.90;;;;;;;11.02;100.00;101270.19;5112152;28;20028;-77
2023/10/13 01:37:49;;;;;;;10.57;3.83;;;;;;;10.99;100.00;101309.22;5113922;28;20035;-79
2023/10/13 01:40:18;;;;;;;10.50;4.13;;;;;;;10.67;100.00;101234.88;5113005;28;20049;-78
2023/10/13 01:42:45;;;;;;;9.68;3.90;;;;;;;11.19;100.00;101307.34;5112516;28;20106;-82
2023/10/13 01:45:13;;;;;;;9.02;4.00;;;;;;;11.05;100.00;101326.16;5113365;28;20087;-80
2023/10/13 01:47:39;;;;;;;7.78;4.00;;;;;;;10.89;100.00;101250.81;5113488;28;20027;-80
2023/10/13 01:50:20;;;;;;;7.95;3.85;;;;;;;11.20;100.00;101321.78;5113758;28;20042;-78
2023/10/13 01:52:46;;;;;;;12.17;4.17;;;;;;;11.24;100.00;101315.81;5113290;28;20030;-78
2023/10/13 01:55:12;;;;;;;10.07;4.05;;;;;;;11.16;100.00;101286.19;5113498;27;20091;-79
2023/10/13 01:57:37;;;;;;;6.68;4.03;;;;;;;11.19;100.00;101250.53;5112409;27;20496;-79
2023/10/13 02:00:11;;;;;;;9.77;4.60;;;;;;;11.27;100.00;101320.84;5111992;28;20059;-77
2023/10/13 02:02:38;;;;;;;7.45;3.80;;;;;;;11.25;100.00;101286.09;5113483;28;20092;-79
2023/10/13 02:05:08;;;;;;;8.70;3.72;;;;;;;11.05;100.00;101232.81;5111281;28;20517;-79
2023/10/13 02:07:34;;;;;;;10.35;3.95;;;;;;;11.11;100.00;101239.56;5113404;28;20031;-79
2023/10/13 02:10:04;;;;;;;9.60;4.07;;;;;;;10.83;100.00;101235.59;5112952;28;20084;-77
2023/10/13 02:12:36;;;;;;;8.90;4.03;;;;;;;10.81;100.00;101263.59;5113552;28;20114;-78
2023/10/13 02:15:04;;;;;;;9.77;3.90;;;;;;;10.99;100.00;101311.75;5113023;28;20035;-77
2023/10/13 02:17:40;;;;;;;11.10;3.63;;;;;;;10.42;100.00;101239.31;5112803;28;20061;-79
2023/10/13 02:20:15;;;;;;;10.93;4.28;;;;;;;10.76;100.00;101316.19;5113378;28;20525;-78
2023/10/13 02:22:48;;;;;;;11.40;4.10;;;;;;;10.59;100.00;101271.41;5112125;27;20043;-77
2023/10/13 02:25:17;;;;;;;7.65;4.13;;;;;;;10.67;100.00;101250.16;5111402;28;20024;-78
2023/10/13 02:27:43;;;;;;;11.50;4.15;;;;;;;10.50;100.00;101239.22;5110721;28;20080;-77
2023/10/13 02:30:14;;;;;;;9.80;4.03;;;;;;;10.48;100.00;101311.31;5111774;28;20502;-77
2023/10/13 02:32:43;;;;;;;10.02;4.47;;;;;;;10.49;100.00;101232.47;5111120;28;20482;-76
2023/10/13 02:35:15;;;;;;;9.43;4.82;;;;;;;10.45;100.00;101246.91;5112070;28;20027;-78
2023/10/13 02:37:44;;;;;;;8.35;4.60;;;;;;;10.71;100.00;101315.41;5110894;28;20035;-77
2023/10/13 02:40:11;;;;;;;9.93;4.72;;;;;;;10.17;100.00;101334.34;5112632;28;20034;-78
2023/10/13 02:42:37;;;;;;;9.68;4.72;;;;;;;10.03;100.00;101249.69;5111893;28;20032;-78
2023/10/13 02:45:03;;;;;;;9.05;4.80;;;;;;;10.29;100.00;101329.22;5112591;28;20197;-79
2023/10/13 02:47:31;;;;;;;10.40;4.47;;;;;;;10.09;100.00;101330.09;5112556;28;20027;-79
2023/10/13 02:50:00;;;;;;;7.95;4.43;;;;;;;10.13;100.00;101325.03;5112517;28;20057;-77
2023/10/13 02:52:26;;;;;;;9.63;4.43;;;;;;;10.13;100.00;101314.88;5112879;28;20032;-78
2023/10/13 02:54:52;;;;;;;11.55;4.60;;;;;;;9.79;100.00;101261.63;5112368;28;20095;-79
2023/10/13 02:57:17;;;;;;;9.75;4.13;;;;;;;10.12;100.00;101330.97;5114968;28;20461;-78
2023/10/13 02:59:47;;;;;;;8.98;4.20;;;;;;;10.15;100.00;101342.81;5115275;28;20058;-78
2023/10/13 03:04:49;;;;;;;6.85;4.32;;;;;;;9.99;100.00;101308.97;5115983;28;20044;-78
2023/10/13 03:07:15;;;;;;;10.80;4.28;;;;;;;9.83;100.00;101279.41;5116545;28;20039;-80
2023/10/13 03:09:50;;;;;;;9.13;4.38;;;;;;;9.90;100.00;101295.47;5116307;28;20027;-80
2023/10/13 03:12:16;;;;;;;10.77;4.20;;;;;;;9.19;100.00;101219.56;5118704;27;20027;-76
2023/10/13 03:14:41;;;;;;;8.82;4.10;;;;;;;9.59;100.00;101276.94;5104017;27;20034;-78
2023/10/13 03:17:08;;;;;;;10.00;4.38;;;;;;;10.46;100.00;101337.56;5113234;27;20031;-78
2023/10/13 03:19:36;;;;;;;10.27;4.43;;;;;;;10.15;100.00;101305.56;5098965;28;20024;-80
2023/10/13 03:22:11;;;;;;;10.20;4.82;;;;;;;10.18;100.00;101335.19;5095853;28;20028;-77
2023/10/13 03:24:47;;;;;;;10.30;4.75;;;;;;;9.91;100.00;101343.72;5093108;28;20484;-79
2023/10/13 03:27:17;;;;;;;9.73;4.57;;;;;;;10.05;100.00;101326.75;5094832;28;20474;-79
2023/10/13 03:29:44;;;;;;;13.35;4.80;;;;;;;9.36;100.00;101243.19;5095149;28;20035;-78
2023/10/13 03:32:15;;;;;;;8.10;4.70;;;;;;;9.61;100.00;101253.25;5093917;28;20467;-80
2023/10/13 03:37:41;;;;;;;9.40;4.55;;;;;;;9.53;100.00;101214.34;5095318;28;20126;-82
2023/10/13 03:43:12;;;;;;;10.15;4.40;;;;;;;10.62;100.00;101324.78;5095222;28;20032;-81
2023/10/13 03:45:39;;;;;;;8.98;4.28;;;;;;;10.14;100.00;101314.00;5093092;28;20142;-82
2023/10/13 03:48:09;;;;;;;8.73;4.30;;;;;;;10.38;100.00;101318.97;5094637;28;20043;-80
2023/10/13 03:50:48;;;;;;;8.50;4.90;;;;;;;10.08;100.00;101236.97;5093772;28;20028;-80
2023/10/13 03:53:14;;;;;;;9.98;4.65;;;;;;;10.71;100.00;101329.81;5093870;28;20036;-75
2023/10/13 03:55:47;;;;;;;10.43;5.38;;;;;;;10.02;100.00;101303.06;5094469;28;20082;-74
2023/10/13 03:58:14;;;;;;;10.07;5.00;;;;;;;9.93;100.00;101267.50;5094270;28;20492;-74
2023/10/13 04:00:42;;;;;;;8.70;3.90;;;;;;;11.22;100.00;101197.88;5111617;28;20032;-72
2023/10/13 04:03:09;;;;;;;9.95;4.68;;;;;;;9.58;100.00;101222.81;5114868;28;20027;-76
2023/10/13 04:05:39;;;;;;;12.02;5.50;;;;;;;10.12;100.00;101297.94;5114998;28;20502;-75
2023/10/13 04:19:03;;;;;;;12.55;4.80;;;;;;;9.96;100.00;101260.75;5113056;28;20120;-75
2023/10/13 04:32:38;;;;;;;14.85;6.32;;;;;;;10.68;100.00;101335.75;5113292;28;20616;-73
2023/10/13 04:38:00;;;;;;;80.97;10.13;;;;;;;10.16;100.00;101342.81;5113329;28;20648;-74
2023/10/13 04:40:28;;;;;;;18.10;6.78;;;;;;;10.28;100.00;101339.38;5113441;28;20534;-73
2023/10/13 04:42:56;;;;;;;13.48;6.10;;;;;;;9.49;100.00;101304.06;5111744;28;20046;-73
2023/10/13 04:47:58;;;;;;;14.70;6.18;;;;;;;10.66;100.00;101355.25;5112562;28;20062;-70
2023/10/13 04:50:34;;;;;;;14.05;6.15;;;;;;;11.04;100.00;101330.41;5112427;28;20092;-71
2023/10/13 04:53:03;;;;;;;12.82;5.63;;;;;;;11.51;100.00;101346.97;5113045;28;20023;-72
2023/10/13 04:55:59;;;;;;;10.60;6.03;;;;;;;10.64;100.00;101301.00;5112223;28;20091;-73
2023/10/13 05:04:03;;;;;;;16.38;9.52;;;;;;;10.43;100.00;101357.09;5113042;28;20539;-72
2023/10/13 05:45:40;;;;;;;18.20;8.10;;;;;;;14.11;100.00;101247.53;5112146;28;20034;-75
2023/10/13 06:28:40;;;;;;;22.90;9.80;;;;;;;14.66;100.00;101294.06;5110926;28;20069;-74
2023/10/13 06:31:07;;;;;;;15.32;8.70;;;;;;;14.97;100.00;101266.00;5110780;28;20035;-73
2023/10/13 06:33:35;;;;;;;30.55;9.57;;;;;;;14.95;100.00;101295.09;5110959;28;20057;-74
2023/10/13 06:36:09;;;;;;;24.65;9.68;;;;;;;15.51;100.00;101336.34;5110340;28;20055;-72
2023/10/13 06:38:37;;;;;;;19.85;9.93;;;;;;;15.53;100.00;101293.56;5110062;28;20034;-72
2023/10/13 06:41:07;;;;;;;20.50;8.93;;;;;;;15.32;100.00;101286.44;5109896;28;20024;-73
2023/10/13 06:43:32;;;;;;;21.20;9.25;;;;;;;16.52;100.00;101329.22;5110117;28;20118;-73
2023/10/13 06:46:00;;;;;;;21.00;9.15;;;;;;;16.53;100.00;101324.03;5110082;28;20122;-73
2023/10/13 06:48:26;;;;;;;18.63;8.45;;;;;;;15.87;100.00;101266.97;5110783;28;20031;-72
2023/10/13 06:50:52;;;;;;;19.45;8.38;;;;;;;16.16;100.00;101260.09;5110641;28;20093;-72
2023/10/13 06:53:19;;;;;;;18.10;8.40;;;;;;;16.36;100.00;101295.44;5111054;28;20386;-71
2023/10/13 06:55:46;;;;;;;19.52;8.80;;;;;;;16.16;100.00;101264.41;5110802;28;20062;-74
2023/10/13 06:58:13;;;;;;;19.90;8.10;;;;;;;16.54;100.00;101258.13;5110466;28;20027;-71
2023/10/13 07:00:52;;;;;;;19.70;9.50;;;;;;;16.72;100.00;101296.88;5110925;28;20102;-72
2023/10/13 07:03:24;;;;;;;18.05;9.13;;;;;;;16.75;100.00;101260.00;5110395;28;20096;-72
2023/10/13 07:05:51;;;;;;;16.35;8.63;;;;;;;16.59;100.00;101258.81;5106026;28;20044;-72
2023/10/13 07:08:21;;;;;;;14.52;8.20;;;;;;;17.03;100.00;101307.03;5090486;28;20108;-72
2023/10/13 07:11:01;;;;;;;16.17;8.20;;;;;;;17.17;100.00;101297.94;5088970;28;20039;-72
2023/10/13 07:13:28;;;;;;;14.75;8.30;;;;;;;17.23;100.00;101302.06;5090471;28;20032;-73
2023/10/13 07:15:59;;;;;;;14.88;8.27;;;;;;;17.19;100.00;101316.72;5090524;28;20024;-72
2023/10/13 07:18:25;;;;;;;;;;;;;;;17.75;100.00;101306.22;5089707;28;20034;-71
2023/10/13 07:20:50;;;;;;;14.18;7.63;;;;;;;17.56;100.00;101308.63;5090307;28;19916;-73
2023/10/13 07:23:20;;;;;;;13.20;7.70;;;;;;;18.22;100.00;101282.16;5090255;28;20504;-73
2023/10/13 07:26:02;;;;;;;15.48;8.45;;;;;;;17.63;100.00;101242.38;5090238;28;20036;-72
2023/10/13 07:28:28;;;;;;;15.02;8.40;;;;;;;17.87;100.00;101229.44;5090000;28;20387;-73
2023/10/13 07:33:19;;;;;;;13.48;7.88;;;;;;;17.67;100.00;101295.41;5089770;28;20115;-72
2023/10/13 07:36:00;;;;;;;16.70;8.95;;;;;;;18.54;100.00;101289.47;5090452;28;20199;-72
2023/10/13 07:38:26;;;;;;;16.90;8.43;;;;;;;18.50;100.00;101285.34;5090783;28;20047;-72
2023/10/13 07:40:52;;;;;;;16.67;9.52;;;;;;;18.04;100.00;101213.34;5089927;28;20482;-72
2023/10/13 07:43:21;;;;;;;20.55;9.60;;;;;;;18.42;100.00;101281.38;5091023;28;20039;-71
2023/10/13 07:45:51;;;;;;;13.55;8.40;;;;;;;17.49;100.00;101249.75;5092189;28;20034;-71
2023/10/13 07:48:20;;;;;;;16.42;8.90;;;;;;;17.46;100.00;101270.38;5093841;28;20020;-71
2023/10/13 07:51:05;;;;;;;14.30;8.52;;;;;;;17.85;100.00;101256.94;5093510;28;20028;-71
2023/10/13 07:53:49;;;;;;;19.17;8.65;;;;;;;18.40;100.00;101291.72;5093639;28;20024;-72
2023/10/13 07:56:18;;;;;;;13.82;8.60;;;;;;;17.81;100.00;101265.69;5094029;28;20317;-72
2023/10/13 07:58:52;;;;;;;14.45;7.78;;;;;;;18.41;100.00;101238.47;5092124;28;20130;-72
2023/10/13 08:01:21;;;;;;;19.33;8.27;;;;;;;18.78;100.00;101270.47;5093918;28;20036;-72
2023/10/13 08:03:47;;;;;;;10.52;7.20;;;;;;;19.16;100.00;101199.22;5092873;28;20095;-72
2023/10/13 08:08:40;;;;;;;11.23;7.68;;;;;;;19.36;100.00;101237.09;5093384;28;20032;-73
2023/10/13 08:11:24;;;;;;;15.63;7.65;;;;;;;19.59;100.00;101247.25;5093449;28;20986;-73
2023/10/13 08:16:54;;;;;;;13.32;7.85;;;;;;;19.27;100.00;101258.09;5093289;28;20488;-74
2023/10/13 08:19:39;;;;;;;12.00;7.13;;;;;;;19.96;100.00;101251.56;5093421;28;20089;-75
2023/10/13 08:37:32;;;;;;;12.27;5.50;;;;;;;20.07;100.00;101224.31;5092659;28;20035;-73
2023/10/13 08:43:14;;;;;;;12.88;4.97;;;;;;;20.60;100.00;101191.59;5092790;28;20040;-73
2023/10/13 08:48:12;;;;;;;14.57;4.95;;;;;;;20.26;100.00;101163.19;5092664;28;20032;-73
2023/10/13 09:01:35;;;;;;;12.15;4.00;;;;;;;21.13;100.00;101123.41;5092435;28;20127;-74
2023/10/13 09:04:21;;;;;;;10.45;5.00;;;;;;;21.82;100.00;101149.81;5091485;28;20056;-73
2023/10/13 09:09:58;;;;;;;11.55;4.78;;;;;;;21.80;100.00;101161.97;5092343;28;20414;-73
2023/10/13 09:12:35;;;;;;;9.38;5.05;;;;;;;21.77;100.00;101152.63;5092118;28;20031;-73
2023/10/13 09:15:17;;;;;;;11.63;4.43;;;;;;;22.40;100.00;101143.81;5090899;28;20032;-73
2023/10/13 09:25:38;;;;;;;12.38;4.40;;;;;;;22.30;100.00;101147.88;5109106;28;20039;-72
2023/10/13 09:28:18;;;;;;;10.98;4.20;;;;;;;22.35;100.00;101132.91;5108423;28;20585;-77
2023/10/13 09:30:47;;;;;;;12.88;4.70;;;;;;;22.14;100.00;101136.75;5108580;28;20063;-73
2023/10/13 09:33:15;;;;;;;13.00;4.35;;;;;;;22.82;100.00;101096.38;5109085;28;20088;-73
2023/10/13 09:35:50;;;;;;;10.57;4.38;;;;;;;21.95;100.00;101094.66;5108841;28;20032;-72
2023/10/13 09:38:17;;;;;;;15.15;4.13;;;;;;;22.50;100.00;101078.50;5109835;28;20102;-72
2023/10/13 09:41:01;;;;;;;11.95;4.25;;;;;;;23.17;100.00;101102.88;5110152;28;20035;-72
2023/10/13 09:43:28;;;;;;;8.27;4.28;;;;;;;22.25;100.00;101029.84;5100778;28;20034;-71
2023/10/13 09:46:06;;;;;;;13.63;4.25;;;;;;;23.40;100.00;101096.25;5109242;28;20070;-73
2023/10/13 09:48:47;;;;;;;8.05;3.95;;;;;;;23.82;100.00;101085.72;5110457;28;20107;-70
2023/10/13 09:51:19;;;;;;;11.65;4.32;;;;;;;23.46;100.00;101079.44;5109532;28;20493;-72
2023/10/13 09:53:53;;;;;;;23.83;4.60;;;;;;;23.76;100.00;101090.47;5097900;28;20059;-73
2023/10/13 09:56:26;;;;;;;9.38;4.15;;;;;;;23.18;100.00;101086.34;5089059;28;20050;-73
2023/10/13 09:59:08;;;;;;;16.58;4.30;;;;;;;23.67;100.00;101026.16;5091212;28;20016;-74
2023/10/13 10:01:37;;;;;;;11.48;4.00;;;;;;;24.33;100.00;101034.66;5090447;28;20024;-74
2023/10/13 10:04:17;;;;;;;10.20;3.83;;;;;;;23.22;100.00;101064.47;5090172;28;20052;-73
2023/10/13 10:07:02;;;;;;;12.95;3.80;;;;;;;23.68;100.00;101056.38;5090775;28;20491;-72
2023/10/13 10:09:38;;;;;;;13.98;4.35;;;;;;;24.01;100.00;100978.78;5089921;28;20024;-74
2023/10/13 10:12:18;;;;;;;11.93;3.90;;;;;;;23.93;100.00;101049.47;5091111;28;20032;-73
2023/10/13 10:15:13;;;;;;;9.80;3.70;;;;;;;24.84;100.00;101025.88;5090932;28;20024;-74
2023/10/13 10:17:43;;;;;;;10.15;3.20;;;;;;;24.76;100.00;100916.31;5089959;28;20055;-76
2023/10/13 10:20:39;;;;;;;13.07;3.80;;;;;;;25.15;100.00;101005.50;5091287;28;20020;-75
2023/10/13 10:23:00;;;;;;;15.52;3.67;;;;;;;25.11;100.00;100999.69;5091536;28;20513;-75
2023/10/13 10:25:35;;;;;;;11.70;3.80;;;;;;;24.54;100.00;100949.13;5091611;28;20028;-75
2023/10/13 10:28:06;;;;;;;11.30;3.85;;;;;;;24.73;100.00;100944.31;5090153;28;20028;-74
2023/10/13 10:30:33;;;;;;;8.38;3.63;;;;;;;25.15;100.00;100980.28;5090938;28;20482;-75
2023/10/13 10:33:01;;;;;;;10.60;4.00;;;;;;;25.84;100.00;100906.50;5090834;28;20028;-74
2023/10/13 10:35:32;;;;;;;8.35;3.55;;;;;;;25.44;100.00;100949.53;5091625;28;20028;-75
2023/10/13 10:38:11;;;;;;;7.43;3.92;;;;;;;25.00;100.00;100965.75;5089595;28;20123;-75
2023/10/13 10:40:51;;;;;;;10.88;3.42;;;;;;;25.26;100.00;100954.28;5090933;28;20413;-75
2023/10/13 10:43:18;;;;;;;9.85;3.45;;;;;;;25.46;100.00;100888.56;5090104;28;20474;-74
2023/10/13 10:45:50;;;;;;;10.15;3.47;;;;;;;25.78;100.00;100879.16;5090481;28;20103;-74
2023/10/13 10:48:17;;;;;;;11.80;3.40;;;;;;;25.31;100.00;100913.13;5090912;28;20409;-75
2023/10/13 10:50:53;;;;;;;14.23;3.50;;;;;;;26.06;100.00;100884.84;5089139;28;20067;-75
2023/10/13 10:53:32;;;;;;;10.45;3.55;;;;;;;25.93;100.00;100946.69;5090911;28;20024;-75
2023/10/13 10:56:05;;;;;;;9.13;3.30;;;;;;;26.02;100.00;100930.34;5089999;28;20039;-76
2023/10/13 10:58:43;;;;;;;10.80;3.47;;;;;;;25.57;100.00;100888.56;5091320;28;20100;-75
2023/10/13 11:01:10;;;;;;;13.35;3.75;;;;;;;26.01;100.00;100928.69;5091211;28;20036;-77
2023/10/13 11:03:42;;;;;;;16.02;3.92;;;;;;;25.64;100.00;100883.75;5090033;28;20402;-77
2023/10/13 11:06:19;;;;;;;5.72;3.00;;;;;;;26.53;100.00;100905.44;5091186;28;20040;-76
2023/10/13 11:08:51;;;;;;;10.93;3.53;;;;;;;26.04;100.00;100879.75;5090096;28;20450;-74
2023/10/13 11:11:19;;;;;;;13.20;3.50;;;;;;;26.45;100.00;100908.66;5090227;28;20111;-76
2023/10/13 11:13:50;;;;;;;7.95;3.55;;;;;;;25.96;100.00;100865.63;5090576;28;20036;-75
2023/10/13 11:16:34;;;;;;;12.35;3.40;;;;;;;26.21;100.00;100901.91;5090619;28;20024;-75
2023/10/13 11:19:05;;;;;;;16.65;3.70;;;;;;;26.44;100.00;100893.13;5096258;28;20582;-75
2023/10/13 11:21:31;;;;;;;11.63;3.30;;;;;;;26.27;100.00;100864.91;5094457;28;20055;-74
2023/10/13 11:24:08;;;;;;;15.00;3.88;;;;;;;25.76;100.00;100854.97;5093777;28;20046;-75
2023/10/13 11:26:49;;;;;;;8.48;3.20;;;;;;;26.64;100.00;100812.28;5093927;28;20073;-75
2023/10/13 11:29:18;;;;;;;8.63;3.22;;;;;;;26.57;100.00;100876.38;5094383;28;20051;-75
2023/10/13 11:31:44;;;;;;;10.50;3.53;;;;;;;26.79;100.00;100838.97;5092958;28;20384;-76
2023/10/13 11:34:11;;;;;;;7.40;3.53;;;;;;;27.05;100.00;100869.00;5094527;27;20061;-75
2023/10/13 11:36:36;;;;;;;7.72;3.13;;;;;;;27.18;100.00;100867.00;5092660;28;20035;-75
2023/10/13 11:39:02;;;;;;;11.85;3.53;;;;;;;25.86;100.00;100849.03;5093995;28;20032;-76
2023/10/13 11:41:35;;;;;;;9.07;3.42;;;;;;;26.25;100.00;100895.50;5093810;28;20476;-76
2023/10/13 11:44:13;;;;;;;10.63;3.75;;;;;;;26.10;100.00;100900.16;5095097;28;20384;-77
2023/10/13 11:49:18;;;;;;;7.10;3.08;;;;;;;25.42;100.00;100881.09;5093896;28;20555;-75
2023/10/13 11:51:48;;;;;;;7.07;3.50;;;;;;;25.53;100.00;100887.16;5093761;28;20036;-75
2023/10/13 11:54:15;;;;;;;5.55;3.20;;;;;;;25.73;100.00;100922.97;5093642;28;20032;-75
2023/10/13 11:56:44;;;;;;;9.05;3.60;;;;;;;25.70;100.00;100910.19;5093271;28;20449;-75
2023/10/13 11:59:17;;;;;;;5.10;3.00;;;;;;;24.98;100.00;100894.75;5092841;28;20474;-75
2023/10/13 12:04:51;;;;;;;8.77;3.40;;;;;;;25.45;100.00;100918.16;5093982;28;20059;-73
2023/10/13 12:07:21;;;;;;;9.10;3.63;;;;;;;25.43;100.00;100909.63;5092857;28;20032;-75
2023/10/13 12:10:15;;;;;;;7.22;3.15;;;;;;;24.95;100.00;100832.53;5093480;28;20028;-75
2023/10/13 12:12:44;;;;;;;5.40;3.08;;;;;;;25.03;100.00;100866.63;5093364;28;20024;-74
2023/10/13 12:15:14;;;;;;;8.35;3.30;;;;;;;25.24;100.00;100895.44;5093170;28;20089;-73
2023/10/13 12:17:44;;;;;;;7.97;3.20;;;;;;;25.24;100.00;100932.75;5093481;28;20032;-75
2023/10/13 12:20:11;;;;;;;6.65;3.40;;;;;;;24.90;100.00;100894.50;5092528;28;20055;-74
2023/10/13 12:22:42;;;;;;;9.35;3.70;;;;;;;25.16;100.00;100937.69;5091697;28;20509;-73
2023/10/13 12:27:59;;;;;;;6.82;3.80;;;;;;;25.54;100.00;100925.31;5093526;28;20042;-75
2023/10/13 12:33:09;;;;;;;8.15;3.63;;;;;;;24.98;100.00;100880.94;5093239;28;20054;-73
2023/10/13 12:38:37;;;;;;;13.02;3.92;;;;;;;25.92;100.00;100930.22;5093368;28;20137;-75
2023/10/13 12:48:55;;;;;;;10.38;3.75;;;;;;;26.25;100.00;100901.56;5093396;28;20031;-76
2023/10/13 12:52:16;;;;;;;17.25;4.50;;;;;;;25.99;100.00;100857.59;5092808;28;20483;-76
2023/10/13 12:54:46;;;;;;;6.88;3.35;;;;;;;25.64;100.00;100847.25;5091668;28;20028;-75
2023/10/13 12:57:13;;;;;;;6.28;3.60;;;;;;;26.31;100.00;100892.41;5091000;28;20024;-75
2023/10/13 12:59:39;;;;;;;12.23;3.63;;;;;;;25.86;100.00;100915.03;5092980;28;20032;-74
2023/10/13 13:02:07;;;;;;;8.77;3.53;;;;;;;25.85;100.00;100921.19;5091606;28;20035;-76
2023/10/13 13:04:36;;;;;;;7.65;3.42;;;;;;;25.89;100.00;100924.41;5091436;28;20117;-76
2023/10/13 13:07:05;;;;;;;11.98;4.50;;;;;;;25.50;100.00;100866.56;5092753;28;20096;-75
2023/10/13 13:09:31;;;;;;;7.25;3.95;;;;;;;25.30;100.00;100855.94;5092457;28;20036;-76
2023/10/13 13:11:57;;;;;;;7.60;4.40;;;;;;;25.41;100.00;100924.56;5091537;28;20028;-77
2023/10/13 13:14:29;;;;;;;13.00;4.32;;;;;;;25.14;100.00;100900.50;5092116;28;20517;-75
2023/10/13 13:17:06;;;;;;;10.82;4.72;;;;;;;25.29;100.00;100928.03;5092330;28;20028;-76
2023/10/13 13:19:36;;;;;;;8.77;4.00;;;;;;;25.24;100.00;100929.31;5092599;28;20616;-75
2023/10/13 13:22:03;;;;;;;11.70;3.90;;;;;;;25.26;100.00;100925.66;5091157;28;20032;-77
2023/10/13 13:24:29;;;;;;;9.23;4.20;;;;;;;25.08;100.00;100941.81;5092452;28;20039;-76
2023/10/13 13:26:56;;;;;;;7.18;3.65;;;;;;;25.06;100.00;100928.06;5091847;28;20494;-75
2023/10/13 13:29:21;;;;;;;8.35;4.05;;;;;;;24.77;100.00;100881.56;5091046;28;20483;-76
2023/10/13 13:31:47;;;;;;;12.95;4.97;;;;;;;24.86;100.00;100903.47;5091787;28;20039;-77
2023/10/13 13:34:15;;;;;;;18.02;6.60;;;;;;;24.69;100.00;100876.03;5092134;28;20031;-75
2023/10/13 13:36:44;;;;;;;11.85;6.38;;;;;;;25.09;100.00;100931.28;5091957;28;20028;-76
2023/10/13 13:39:11;;;;;;;16.85;10.82;;;;;;;25.49;100.00;100924.00;5092465;28;20170;-75
2023/10/13 13:41:37;;;;;;;17.30;9.77;;;;;;;25.66;100.00;100853.19;5091432;28;20115;-73
2023/10/13 13:44:15;;;;;;;10.93;4.95;;;;;;;26.02;100.00;100886.03;5092048;28;20220;-75
2023/10/13 13:46:41;;;;;;;7.80;4.82;;;;;;;25.69;100.00;100912.91;5092285;28;20135;-74
2023/10/13 13:49:08;;;;;;;9.65;3.70;;;;;;;25.83;100.00;100862.31;5091790;28;20028;-74
2023/10/13 13:51:34;;;;;;;10.77;3.50;;;;;;;26.08;100.00;100891.63;5091820;28;20081;-76
2023/10/13 13:54:06;;;;;;;9.77;3.53;;;;;;;25.73;100.00;100842.16;5091845;28;20028;-75
2023/10/13 13:56:38;;;;;;;8.40;3.33;;;;;;;25.49;100.00;100854.47;5091149;28;20036;-74
2023/10/13 13:59:07;;;;;;;9.70;3.78;;;;;;;25.57;100.00;100853.91;5091984;28;20027;-74
2023/10/13 14:01:34;;;;;;;5.82;3.72;;;;;;;25.39;100.00;100866.53;5091684;28;20061;-73
2023/10/13 14:04:03;;;;;;;10.20;3.70;;;;;;;24.97;100.00;100872.28;5090377;28;20095;-73
2023/10/13 14:06:29;;;;;;;13.55;4.18;;;;;;;25.14;100.00;100904.88;5090319;28;20066;-73
2023/10/13 14:08:56;;;;;;;8.80;3.95;;;;;;;24.96;100.00;100901.84;5091178;28;20063;-74
2023/10/13 14:16:53;;;;;;;13.60;4.53;;;;;;;24.81;100.00;100929.84;5091351;28;20028;-75
2023/10/13 14:19:26;;;;;;;14.73;4.63;;;;;;;25.26;100.00;100963.88;5090048;28;20040;-75
2023/10/13 14:22:06;;;;;;;9.65;4.00;;;;;;;25.23;100.00;100987.53;5090049;28;20048;-74
2023/10/13 14:24:34;;;;;;;12.32;4.03;;;;;;;25.00;100.00;100985.78;5123952;27;20096;-71
2023/10/13 14:27:12;;;;;;;8.07;4.03;;;;;;;24.56;100.00;100947.25;5089290;28;20127;-74
2023/10/13 14:29:42;;;;;;;11.80;4.72;;;;;;;24.13;100.00;100935.59;5090942;28;20042;-75
2023/10/13 14:32:13;;;;;;;10.27;4.80;;;;;;;23.86;100.00;100966.84;5091162;28;20036;-75
2023/10/13 14:34:43;;;;;;;23.52;5.68;;;;;;;23.82;100.00;100974.00;5091062;28;20036;-74
2023/10/13 14:37:13;;;;;;;16.27;5.47;;;;;;;24.08;100.00;101022.50;5091942;28;20043;-72
2023/10/13 14:39:40;;;;;;;12.77;6.07;;;;;;;23.69;100.00;100982.72;5090731;28;20111;-73
2023/10/13 14:42:10;;;;;;;14.26;6.00;;;;;;;23.69;100.00;101039.88;4920078;27;10000456;-73
2023/10/13 14:44:36;;;;;;;16.85;5.60;;;;;;;23.48;100.00;100997.94;5121316;27;20244;-72
2023/10/13 14:47:05;;;;;;;12.88;6.90;;;;;;;23.46;100.00;100979.03;5107607;28;20104;-72
2023/10/13 14:49:30;;;;;;;15.63;7.60;;;;;;;23.55;100.00;101045.94;5106452;28;20042;-72